Time;durP1;ratioP1;P1;durP2;ratioP2;P2;SDS_P1;SDS_P2;PMS_P1;PMS_P2;Temp;Humidity;BMP_temperature;BMP_pressure;BME280_temperature;BME280_humidity;BME280_pressure;Samples;Min_cycle;Max_cycle;Signal;HPM_P1;HPM_P2
2022/04/01 00:00:18;;;;;;;9.35;3.22;;;;;;;;;;5038683;28;20025;-72
2022/04/01 00:02:44;;;;;;;8.18;3.22;;;;;;;;;;5019653;28;20084;-73
2022/04/01 00:05:09;;;;;;;9.77;3.20;;;;;;;;;;5017471;28;20030;-72
2022/04/01 00:07:35;;;;;;;6.75;2.83;;;;;;;;;;5017195;28;20022;-71
2022/04/01 00:10:00;;;;;;;9.32;3.50;;;;;;;;;;5016949;28;20457;-72
2022/04/01 00:12:25;;;;;;;10.18;3.42;;;;;;;;;;5018250;28;20018;-72
2022/04/01 00:14:51;;;;;;;5.20;2.63;;;;;;;;;;5018656;28;20021;-72
2022/04/01 00:17:16;;;;;;;10.57;3.15;;;;;;;;;;5018255;28;20022;-72
2022/04/01 00:19:41;;;;;;;9.80;3.65;;;;;;;;;;5018054;28;20033;-72
2022/04/01 00:22:06;;;;;;;10.55;3.20;;;;;;;;;;5023267;28;20029;-71
2022/04/01 00:24:32;;;;;;;12.35;3.15;;;;;;;;;;5021128;28;20033;-71
2022/04/01 00:26:58;;;;;;;6.72;2.92;;;;;;;;;;5036867;28;20104;-71
2022/04/01 00:29:23;;;;;;;8.75;3.22;;;;;;;;;;5034211;28;20032;-72
2022/04/01 00:31:50;;;;;;;6.30;3.08;;;;;;;;;;5033898;28;20538;-72
2022/04/01 00:34:15;;;;;;;8.98;3.10;;;;;;;;;;5034619;28;20028;-71
2022/04/01 00:36:50;;;;;;;7.63;3.78;;;;;;;;;;5033231;28;20475;-72
2022/04/01 00:39:17;;;;;;;10.57;3.90;;;;;;;;;;5032371;28;20025;-73
2022/04/01 00:41:45;;;;;;;10.82;4.28;;;;;;;;;;5021767;28;20021;-72
2022/04/01 00:44:18;;;;;;;9.23;3.63;;;;;;;;;;5013405;28;20078;-71
2022/04/01 00:46:45;;;;;;;11.15;3.08;;;;;;;;;;5014518;28;20069;-71
2022/04/01 00:49:10;;;;;;;11.85;4.68;;;;;;;;;;5014617;28;20029;-71
2022/04/01 00:51:37;;;;;;;9.77;4.18;;;;;;;;;;5014415;28;20495;-71
2022/04/01 00:54:02;;;;;;;12.85;4.07;;;;;;;;;;5014525;28;20018;-72
2022/04/01 00:56:30;;;;;;;8.25;3.20;;;;;;;;;;5016732;28;20025;-71
2022/04/01 00:58:56;;;;;;;7.67;3.57;;;;;;;;;;5027831;28;20029;-72
2022/04/01 01:01:21;;;;;;;8.02;3.15;;;;;;;;;;5014378;28;20060;-73
2022/04/01 01:03:46;;;;;;;6.78;3.03;;;;;;;;;;5012908;28;20106;-71
2022/04/01 01:06:12;;;;;;;13.63;3.30;;;;;;;;;;5012986;28;20029;-72
2022/04/01 01:08:37;;;;;;;9.43;3.60;;;;;;;;;;5012979;28;20033;-71
2022/04/01 01:11:02;;;;;;;9.45;3.17;;;;;;;;;;5014232;28;20440;-72
2022/04/01 01:13:29;;;;;;;8.43;3.38;;;;;;;;;;5028271;28;20026;-73
2022/04/01 01:15:54;;;;;;;10.85;3.10;;;;;;;;;;5020640;28;20116;-72
2022/04/01 01:18:21;;;;;;;7.97;3.28;;;;;;;;;;5013979;28;20736;-72
2022/04/01 01:20:46;;;;;;;11.15;3.47;;;;;;;;;;5012763;28;20532;-72
2022/04/01 01:23:12;;;;;;;8.48;3.45;;;;;;;;;;5012535;28;20068;-74
2022/04/01 01:25:38;;;;;;;5.85;2.80;;;;;;;;;;5012825;28;20037;-71
2022/04/01 01:28:04;;;;;;;11.35;4.13;;;;;;;;;;5012776;28;20057;-72
2022/04/01 01:30:29;;;;;;;8.80;3.65;;;;;;;;;;5014134;28;20052;-72
2022/04/01 01:32:55;;;;;;;8.68;3.13;;;;;;;;;;5025376;28;20079;-71
2022/04/01 01:35:21;;;;;;;11.73;4.15;;;;;;;;;;5032361;28;20033;-73
2022/04/01 01:37:46;;;;;;;10.45;3.20;;;;;;;;;;5033766;28;20021;-73
2022/04/01 01:40:11;;;;;;;8.82;3.70;;;;;;;;;;5031932;28;20021;-73
2022/04/01 01:42:36;;;;;;;10.23;3.65;;;;;;;;;;5033263;28;20096;-73
2022/04/01 01:45:02;;;;;;;10.70;3.75;;;;;;;;;;5032372;28;20025;-71
2022/04/01 01:47:27;;;;;;;10.00;3.20;;;;;;;;;;5015171;28;20540;-73
2022/04/01 01:55:20;;;;;;;8.85;3.95;;;;;;;;;;5033161;28;20052;-73
2022/04/01 01:57:45;;;;;;;8.65;3.33;;;;;;;;;;5032903;28;20041;-71
2022/04/01 02:00:11;;;;;;;9.68;3.30;;;;;;;;;;5031796;28;20130;-71
2022/04/01 02:02:37;;;;;;;7.85;3.25;;;;;;;;;;5031858;28;20021;-73
2022/04/01 02:05:02;;;;;;;7.43;3.55;;;;;;;;;;5018611;28;20083;-73
2022/04/01 02:07:27;;;;;;;8.02;3.55;;;;;;;;;;5013053;28;20018;-72
2022/04/01 02:09:53;;;;;;;7.60;3.20;;;;;;;;;;5013106;28;20411;-71
2022/04/01 02:12:18;;;;;;;7.18;3.33;;;;;;;;;;5011591;28;20100;-71
2022/04/01 02:14:43;;;;;;;11.48;3.80;;;;;;;;;;5012873;28;20025;-70
2022/04/01 02:17:09;;;;;;;8.68;3.50;;;;;;;;;;5012887;28;20026;-72
2022/04/01 02:19:34;;;;;;;13.18;3.45;;;;;;;;;;5014276;28;20018;-74
2022/04/01 02:21:59;;;;;;;6.47;3.15;;;;;;;;;;5018346;28;20479;-73
2022/04/01 02:24:25;;;;;;;7.50;2.92;;;;;;;;;;5031441;28;20041;-72
2022/04/01 02:26:51;;;;;;;8.43;4.13;;;;;;;;;;5032436;28;20036;-70
2022/04/01 02:29:18;;;;;;;6.68;3.10;;;;;;;;;;5032585;28;20021;-70
2022/04/01 02:31:44;;;;;;;9.05;3.13;;;;;;;;;;5032358;28;20017;-71
2022/04/01 02:34:09;;;;;;;6.55;3.13;;;;;;;;;;5031035;28;20018;-70
2022/04/01 02:36:34;;;;;;;6.50;2.83;;;;;;;;;;5013689;28;20025;-71
2022/04/01 02:39:01;;;;;;;11.15;3.08;;;;;;;;;;5031033;28;20524;-71
2022/04/01 02:41:26;;;;;;;7.38;3.15;;;;;;;;;;5030969;28;20155;-71
2022/04/01 02:44:08;;;;;;;11.77;3.10;;;;;;;;;;5032121;28;20048;-72
2022/04/01 02:46:34;;;;;;;7.70;3.20;;;;;;;;;;5031925;28;20025;-73
2022/04/01 02:49:00;;;;;;;10.10;3.40;;;;;;;;;;5032259;28;20034;-72
2022/04/01 02:51:25;;;;;;;8.13;3.08;;;;;;;;;;5031546;28;20442;-72
2022/04/01 02:53:50;;;;;;;9.10;2.97;;;;;;;;;;5018592;28;20495;-74
2022/04/01 02:56:15;;;;;;;9.75;3.15;;;;;;;;;;5028123;28;20026;-72
2022/04/01 02:58:40;;;;;;;6.13;3.03;;;;;;;;;;5030750;28;20101;-74
2022/04/01 03:01:05;;;;;;;6.60;2.97;;;;;;;;;;5031889;28;20013;-74
2022/04/01 03:03:31;;;;;;;10.85;3.72;;;;;;;;;;5031790;28;20430;-71
2022/04/01 03:05:57;;;;;;;6.97;3.17;;;;;;;;;;5031938;28;20075;-71
2022/04/01 03:08:22;;;;;;;7.65;3.22;;;;;;;;;;5030726;28;20029;-72
2022/04/01 03:10:47;;;;;;;6.72;2.70;;;;;;;;;;5027682;28;20421;-72
2022/04/01 03:13:12;;;;;;;9.98;3.72;;;;;;;;;;5011973;28;20056;-71
2022/04/01 03:15:38;;;;;;;8.15;3.17;;;;;;;;;;5012002;28;20029;-72
2022/04/01 03:18:04;;;;;;;10.55;4.15;;;;;;;;;;5012357;28;20017;-71
2022/04/01 03:20:30;;;;;;;10.43;3.53;;;;;;;;;;5012312;28;20018;-70
2022/04/01 03:22:55;;;;;;;12.45;3.25;;;;;;;;;;5012267;28;20021;-72
2022/04/01 03:25:21;;;;;;;10.93;4.32;;;;;;;;;;5031213;28;20076;-73
2022/04/01 03:27:47;;;;;;;13.80;3.80;;;;;;;;;;5010712;28;20029;-72
2022/04/01 03:30:13;;;;;;;7.68;2.88;;;;;;;;;;5011983;28;20032;-72
2022/04/01 03:32:38;;;;;;;7.50;2.90;;;;;;;;;;5010661;28;20027;-72
2022/04/01 03:35:08;;;;;;;10.65;3.22;;;;;;;;;;5010613;28;20369;-72
2022/04/01 03:37:33;;;;;;;7.80;2.67;;;;;;;;;;5010600;28;20065;-72
2022/04/01 03:40:00;;;;;;;6.57;2.63;;;;;;;;;;5026439;28;20408;-73
2022/04/01 03:42:30;;;;;;;10.27;3.28;;;;;;;;;;5014154;28;20018;-72
2022/04/01 03:44:55;;;;;;;13.57;3.40;;;;;;;;;;5011716;28;20021;-72
2022/04/01 03:47:23;;;;;;;9.90;3.13;;;;;;;;;;5011576;28;20068;-71
2022/04/01 03:49:54;;;;;;;12.35;3.15;;;;;;;;;;5010385;28;20026;-72
2022/04/01 03:52:19;;;;;;;9.23;3.17;;;;;;;;;;5010166;28;20274;-71
2022/04/01 03:54:46;;;;;;;12.35;3.10;;;;;;;;;;5015566;28;20025;-73
2022/04/01 03:57:12;;;;;;;14.32;4.53;;;;;;;;;;5024056;28;20025;-72
2022/04/01 03:59:41;;;;;;;9.75;3.05;;;;;;;;;;5010429;28;20420;-71
2022/04/01 04:02:12;;;;;;;11.80;3.25;;;;;;;;;;5011540;28;20053;-71
2022/04/01 04:04:38;;;;;;;10.20;2.58;;;;;;;;;;5014967;28;20024;-72
2022/04/01 04:07:06;;;;;;;8.73;2.97;;;;;;;;;;5014955;28;20033;-73
2022/04/01 04:09:32;;;;;;;11.07;2.97;;;;;;;;;;5014246;28;20028;-71
2022/04/01 04:11:59;;;;;;;10.05;3.08;;;;;;;;;;5027550;28;20112;-72
2022/04/01 04:14:27;;;;;;;8.85;2.75;;;;;;;;;;5024359;28;20025;-72
2022/04/01 04:16:55;;;;;;;8.73;2.83;;;;;;;;;;5015190;28;20018;-71
2022/04/01 04:19:35;;;;;;;10.00;3.00;;;;;;;;;;5015052;28;20184;-72
2022/04/01 04:22:14;;;;;;;7.28;2.65;;;;;;;;;;5013895;28;20037;-72
2022/04/01 04:24:53;;;;;;;7.10;3.30;;;;;;;;;;5014990;28;20113;-72
2022/04/01 04:27:24;;;;;;;8.80;2.97;;;;;;;;;;5014896;28;20052;-71
2022/04/01 04:29:50;;;;;;;7.38;2.80;;;;;;;;;;5031532;28;20021;-74
2022/04/01 04:32:22;;;;;;;11.88;4.03;;;;;;;;;;5018745;28;20044;-74
2022/04/01 04:34:49;;;;;;;11.73;3.55;;;;;;;;;;5013603;28;20168;-72
2022/04/01 04:37:15;;;;;;;10.50;2.92;;;;;;;;;;5014894;28;20018;-70
2022/04/01 04:39:40;;;;;;;7.72;2.83;;;;;;;;;;5014677;28;20519;-74
2022/04/01 04:42:06;;;;;;;13.32;4.35;;;;;;;;;;5013304;28;20026;-70
2022/04/01 04:44:32;;;;;;;6.78;2.75;;;;;;;;;;5013032;28;20568;-72
2022/04/01 04:46:57;;;;;;;5.18;2.58;;;;;;;;;;5030844;28;20030;-77
2022/04/01 04:49:24;;;;;;;9.25;2.72;;;;;;;;;;5015973;28;20374;-71
2022/04/01 04:51:51;;;;;;;7.45;2.78;;;;;;;;;;5014386;28;20076;-71
2022/04/01 04:54:17;;;;;;;7.50;2.80;;;;;;;;;;5014130;28;20017;-72
2022/04/01 04:56:43;;;;;;;7.50;2.88;;;;;;;;;;5012589;28;20109;-72
2022/04/01 04:59:12;;;;;;;6.18;2.53;;;;;;;;;;5012964;28;20064;-72
2022/04/01 05:01:56;;;;;;;9.55;3.78;;;;;;;;;;5012960;28;20064;-72
2022/04/01 05:04:25;;;;;;;10.68;3.05;;;;;;;;;;5033087;28;20029;-71
2022/04/01 05:07:09;;;;;;;7.40;2.50;;;;;;;;;;5014050;28;20080;-72
2022/04/01 05:09:38;;;;;;;6.90;2.63;;;;;;;;;;5013872;28;20108;-73
2022/04/01 05:12:06;;;;;;;7.70;3.28;;;;;;;;;;5013859;28;20028;-70
2022/04/01 05:14:50;;;;;;;9.93;2.67;;;;;;;;;;5013271;28;20041;-73
2022/04/01 05:17:25;;;;;;;7.53;2.83;;;;;;;;;;5012261;28;20022;-72
2022/04/01 05:19:59;;;;;;;16.10;3.22;;;;;;;;;;5012765;28;20122;-72
2022/04/01 05:22:29;;;;;;;7.43;2.90;;;;;;;;;;5032192;28;20028;-71
2022/04/01 05:25:00;;;;;;;9.98;2.92;;;;;;;;;;5013454;28;20017;-73
2022/04/01 05:27:28;;;;;;;6.63;2.70;;;;;;;;;;5012039;28;20034;-72
2022/04/01 05:30:04;;;;;;;7.82;2.83;;;;;;;;;;5013468;28;20045;-72
2022/04/01 05:32:31;;;;;;;5.93;2.78;;;;;;;;;;5013266;28;20104;-71
2022/04/01 05:34:58;;;;;;;12.32;3.33;;;;;;;;;;5011757;28;20028;-72
2022/04/01 05:37:25;;;;;;;8.45;3.17;;;;;;;;;;5015027;28;20050;-73
2022/04/01 05:39:52;;;;;;;12.02;3.45;;;;;;;;;;5033279;28;20029;-72
2022/04/01 05:42:18;;;;;;;7.75;3.35;;;;;;;;;;5033620;28;20469;-72
2022/04/01 05:44:44;;;;;;;14.35;3.85;;;;;;;;;;5032107;28;20025;-73
2022/04/01 05:47:10;;;;;;;7.32;3.47;;;;;;;;;;5031753;28;20127;-72
2022/04/01 05:49:45;;;;;;;9.68;3.47;;;;;;;;;;5033108;28;20036;-72
2022/04/01 05:52:11;;;;;;;9.43;3.58;;;;;;;;;;5031987;28;20041;-72
2022/04/01 05:54:38;;;;;;;8.48;3.42;;;;;;;;;;5021994;28;20022;-73
2022/04/01 05:57:03;;;;;;;7.88;3.38;;;;;;;;;;5013051;28;20029;-73
2022/04/01 05:59:29;;;;;;;8.48;3.20;;;;;;;;;;5012945;28;20026;-72
2022/04/01 06:02:13;;;;;;;10.70;3.13;;;;;;;;;;5011683;28;20481;-73
2022/04/01 06:04:44;;;;;;;9.73;3.08;;;;;;;;;;5012833;28;20513;-73
2022/04/01 06:07:11;;;;;;;7.30;3.17;;;;;;;;;;5014854;28;20047;-73
2022/04/01 06:09:42;;;;;;;9.32;3.22;;;;;;;;;;5028807;28;20507;-72
2022/04/01 06:12:16;;;;;;;6.15;2.50;;;;;;;;;;5011275;28;20029;-74
2022/04/01 06:14:53;;;;;;;7.60;2.70;;;;;;;;;;5011218;28;20026;-73
2022/04/01 06:17:23;;;;;;;10.13;3.45;;;;;;;;;;5012644;28;20438;-72
2022/04/01 06:19:51;;;;;;;9.15;2.63;;;;;;;;;;5012016;28;20018;-73
2022/04/01 06:22:20;;;;;;;8.15;3.15;;;;;;;;;;5012957;28;20033;-74
2022/04/01 06:24:45;;;;;;;;;;;;;;;;;;5019997;28;20503;-73
2022/04/01 06:27:18;;;;;;;7.28;2.58;;;;;;;;;;5026183;28;19908;-73
2022/04/01 06:29:47;;;;;;;11.35;2.70;;;;;;;;;;5032910;28;20017;-73
2022/04/01 06:32:13;;;;;;;6.57;2.85;;;;;;;;;;5032271;28;20101;-71
2022/04/01 06:34:49;;;;;;;6.72;2.80;;;;;;;;;;5032310;28;20025;-72
2022/04/01 06:37:20;;;;;;;5.20;2.85;;;;;;;;;;5032268;28;20044;-73
2022/04/01 06:40:04;;;;;;;7.90;2.90;;;;;;;;;;5031253;28;20017;-72
2022/04/01 06:42:31;;;;;;;9.18;2.97;;;;;;;;;;5012863;28;20432;-72
2022/04/01 06:44:56;;;;;;;6.13;2.88;;;;;;;;;;5011501;28;20018;-72
2022/04/01 06:47:21;;;;;;;8.68;3.58;;;;;;;;;;5010676;28;20288;-70
2022/04/01 06:49:46;;;;;;;7.93;3.10;;;;;;;;;;5012450;28;20099;-71
2022/04/01 06:52:12;;;;;;;7.90;3.17;;;;;;;;;;5011092;28;20087;-72
2022/04/01 06:54:37;;;;;;;6.75;2.72;;;;;;;;;;5013807;28;20431;-72
2022/04/01 06:57:02;;;;;;;9.57;2.92;;;;;;;;;;5017937;28;20100;-71
2022/04/01 06:59:27;;;;;;;8.27;2.85;;;;;;;;;;5031792;28;20044;-72
2022/04/01 07:01:53;;;;;;;7.75;3.25;;;;;;;;;;5030360;28;20017;-71
2022/04/01 07:04:18;;;;;;;6.38;2.80;;;;;;;;;;5031482;28;20047;-72
2022/04/01 07:06:43;;;;;;;6.05;2.60;;;;;;;;;;5031714;28;20120;-72
2022/04/01 07:09:09;;;;;;;7.97;3.35;;;;;;;;;;5030368;28;20535;-74
2022/04/01 07:11:34;;;;;;;12.73;3.30;;;;;;;;;;5030250;28;20029;-72
2022/04/01 07:13:59;;;;;;;7.95;3.00;;;;;;;;;;5030539;28;20032;-71
2022/04/01 07:16:24;;;;;;;7.95;4.18;;;;;;;;;;5013072;28;20397;-73
2022/04/01 07:18:50;;;;;;;6.80;3.25;;;;;;;;;;5011917;28;20097;-71
2022/04/01 07:21:15;;;;;;;7.82;2.97;;;;;;;;;;5011948;28;20442;-70
2022/04/01 07:23:41;;;;;;;11.63;4.85;;;;;;;;;;5010623;28;20030;-72
2022/04/01 07:26:06;;;;;;;10.23;3.22;;;;;;;;;;5011808;28;20030;-72
2022/04/01 07:28:32;;;;;;;8.43;2.97;;;;;;;;;;5014914;28;20025;-73
2022/04/01 07:30:58;;;;;;;10.88;3.25;;;;;;;;;;5024522;28;20112;-73
2022/04/01 07:33:23;;;;;;;8.07;2.83;;;;;;;;;;5010381;28;20105;-72
2022/04/01 07:35:49;;;;;;;8.27;3.22;;;;;;;;;;5010492;28;20052;-73
2022/04/01 07:38:14;;;;;;;8.20;3.10;;;;;;;;;;5013478;28;20018;-72
2022/04/01 07:40:40;;;;;;;9.52;2.85;;;;;;;;;;5014272;28;20022;-73
2022/04/01 07:43:05;;;;;;;9.38;3.05;;;;;;;;;;5014186;28;20022;-73
2022/04/01 07:45:34;;;;;;;7.07;2.88;;;;;;;;;;5019871;28;20113;-70
2022/04/01 07:48:00;;;;;;;10.05;3.13;;;;;;;;;;5028220;28;20041;-73
2022/04/01 07:50:26;;;;;;;9.38;3.30;;;;;;;;;;5015540;28;20018;-72
2022/04/01 07:52:51;;;;;;;9.23;2.90;;;;;;;;;;5015143;28;20025;-72
2022/04/01 07:55:17;;;;;;;6.57;2.85;;;;;;;;;;5014103;28;20040;-71
2022/04/01 07:57:42;;;;;;;8.13;4.03;;;;;;;;;;5015353;28;20022;-72
2022/04/01 08:00:08;;;;;;;7.10;3.17;;;;;;;;;;5013946;28;20389;-71
2022/04/01 08:02:34;;;;;;;9.57;3.75;;;;;;;;;;5023088;28;20040;-73
2022/04/01 08:04:59;;;;;;;13.43;5.97;;;;;;;;;;5027756;28;20412;-72
2022/04/01 08:07:24;;;;;;;11.55;3.50;;;;;;;;;;5013773;28;20025;-71
2022/04/01 08:09:50;;;;;;;6.15;2.70;;;;;;;;;;5013665;28;20072;-71
2022/04/01 08:12:15;;;;;;;6.78;2.80;;;;;;;;;;5014985;28;20424;-72
2022/04/01 08:14:41;;;;;;;12.75;3.05;;;;;;;;;;5014721;28;20022;-73
2022/04/01 08:17:06;;;;;;;7.55;3.28;;;;;;;;;;5016577;28;20021;-77
2022/04/01 08:19:32;;;;;;;6.40;2.67;;;;;;;;;;5032747;28;20036;-74
2022/04/01 08:21:58;;;;;;;5.78;2.80;;;;;;;;;;5015118;28;20384;-73
2022/04/01 08:24:24;;;;;;;8.82;3.45;;;;;;;;;;5014598;28;20029;-72
2022/04/01 08:26:49;;;;;;;9.57;3.20;;;;;;;;;;5014955;28;20083;-73
2022/04/01 08:29:15;;;;;;;11.45;3.20;;;;;;;;;;5014728;28;20022;-75
2022/04/01 08:31:40;;;;;;;9.70;3.63;;;;;;;;;;5014599;28;20417;-73
2022/04/01 08:34:05;;;;;;;7.32;3.28;;;;;;;;;;5031264;28;20229;-73
2022/04/01 08:36:31;;;;;;;7.72;3.50;;;;;;;;;;5015020;28;20030;-73
2022/04/01 08:38:56;;;;;;;12.18;3.90;;;;;;;;;;5013215;28;20068;-74
2022/04/01 08:41:22;;;;;;;7.95;3.50;;;;;;;;;;5013335;28;20393;-73
2022/04/01 08:43:48;;;;;;;6.13;3.08;;;;;;;;;;5014454;28;20112;-74
2022/04/01 08:46:14;;;;;;;7.45;3.55;;;;;;;;;;5014154;28;20029;-75
2022/04/01 08:48:41;;;;;;;8.55;3.90;;;;;;;;;;5015169;28;20022;-74
2022/04/01 08:51:10;;;;;;;9.02;3.20;;;;;;;;;;5034097;28;20026;-72
2022/04/01 08:53:39;;;;;;;9.57;4.28;;;;;;;;;;5015853;28;20057;-76
2022/04/01 08:56:04;;;;;;;8.27;3.95;;;;;;;;;;5013428;28;20030;-75
2022/04/01 08:58:30;;;;;;;11.93;3.55;;;;;;;;;;5013020;28;20465;-75
2022/04/01 09:00:57;;;;;;;6.22;3.42;;;;;;;;;;5013377;28;20070;-77
2022/04/01 09:03:22;;;;;;;7.40;3.95;;;;;;;;;;5014654;28;20053;-84
2022/04/01 09:05:53;;;;;;;6.82;3.70;;;;;;;;;;5014440;28;20024;-76
2022/04/01 09:08:23;;;;;;;7.85;3.60;;;;;;;;;;5015234;28;20026;-74
2022/04/01 09:10:50;;;;;;;9.85;3.42;;;;;;;;;;5034039;28;20021;-73
2022/04/01 09:13:16;;;;;;;11.63;3.67;;;;;;;;;;5032339;28;20018;-73
2022/04/01 09:15:43;;;;;;;7.70;3.10;;;;;;;;;;5033771;28;20024;-73
2022/04/01 09:18:09;;;;;;;7.72;3.58;;;;;;;;;;5032358;28;20104;-74
2022/04/01 09:20:44;;;;;;;6.82;3.45;;;;;;;;;;5033727;28;20018;-73
2022/04/01 09:23:09;;;;;;;7.45;3.60;;;;;;;;;;5031016;28;20029;-74
2022/04/01 09:25:35;;;;;;;6.38;3.47;;;;;;;;;;5021540;28;20476;-75
2022/04/01 09:28:00;;;;;;;10.00;3.40;;;;;;;;;;5012637;28;20412;-74
2022/04/01 09:30:27;;;;;;;9.07;3.65;;;;;;;;;;5014115;28;20022;-73
2022/04/01 09:32:55;;;;;;;13.13;3.72;;;;;;;;;;5028816;28;20106;-71
2022/04/01 09:35:22;;;;;;;12.07;3.25;;;;;;;;;;5013844;28;20022;-73
2022/04/01 09:37:48;;;;;;;6.70;3.28;;;;;;;;;;5013277;28;20018;-72
2022/04/01 09:40:17;;;;;;;12.63;4.10;;;;;;;;;;5014939;28;20072;-71
2022/04/01 09:42:49;;;;;;;8.70;3.47;;;;;;;;;;5032631;28;20075;-74
2022/04/01 09:45:16;;;;;;;6.30;3.33;;;;;;;;;;5033270;28;20033;-71
2022/04/01 09:47:45;;;;;;;6.45;3.47;;;;;;;;;;5031660;28;20114;-76
2022/04/01 09:50:16;;;;;;;8.38;3.55;;;;;;;;;;5033564;28;20109;-72
2022/04/01 09:52:42;;;;;;;7.25;3.28;;;;;;;;;;5031640;28;20025;-73
2022/04/01 09:55:07;;;;;;;8.02;2.88;;;;;;;;;;5033092;28;20047;-73
2022/04/01 09:57:33;;;;;;;9.57;3.53;;;;;;;;;;5031407;28;20100;-71
2022/04/01 09:59:58;;;;;;;6.85;2.92;;;;;;;;;;5031630;28;20129;-72
2022/04/01 10:02:24;;;;;;;9.52;3.20;;;;;;;;;;5031424;28;20040;-73
2022/04/01 10:04:50;;;;;;;9.45;3.30;;;;;;;;;;5031468;28;20033;-71
2022/04/01 10:07:17;;;;;;;7.85;3.20;;;;;;;;;;5032676;28;20077;-72
2022/04/01 10:09:43;;;;;;;7.53;3.40;;;;;;;;;;5031347;28;20021;-74
2022/04/01 10:12:13;;;;;;;8.48;3.70;;;;;;;;;;5031325;28;20037;-71
2022/04/01 10:14:41;;;;;;;8.57;3.50;;;;;;;;;;5032420;28;20476;-73
2022/04/01 10:17:10;;;;;;;5.82;2.97;;;;;;;;;;5032530;28;20023;-74
2022/04/01 10:19:38;;;;;;;8.95;4.28;;;;;;;;;;5032562;28;20025;-75
2022/04/01 10:22:04;;;;;;;11.80;3.10;;;;;;;;;;5032343;28;20027;-72
2022/04/01 10:24:49;;;;;;;8.43;3.50;;;;;;;;;;5032526;28;20021;-72
2022/04/01 10:27:37;;;;;;;6.43;3.38;;;;;;;;;;5032393;28;20079;-74
2022/04/01 10:30:03;;;;;;;6.53;3.30;;;;;;;;;;5032488;28;20025;-73
2022/04/01 10:32:34;;;;;;;11.63;3.15;;;;;;;;;;5031365;28;20022;-72
2022/04/01 10:35:01;;;;;;;4.95;2.70;;;;;;;;;;5032163;28;20025;-74
2022/04/01 10:37:27;;;;;;;5.22;3.05;;;;;;;;;;5032069;28;20021;-72
2022/04/01 10:39:54;;;;;;;5.50;3.00;;;;;;;;;;5030869;28;20022;-72
2022/04/01 10:42:23;;;;;;;6.57;3.20;;;;;;;;;;5031247;28;20028;-71
2022/04/01 10:44:49;;;;;;;;;;;;;;;;;;5014601;28;20021;-74
2022/04/01 10:47:14;;;;;;;6.68;2.95;;;;;;;;;;5031879;28;19920;-72
2022/04/01 10:52:23;;;;;;;6.13;2.83;;;;;;;;;;5040184;28;20497;-79
2022/04/01 10:55:06;;;;;;;9.43;3.20;;;;;;;;;;5039615;28;20096;-80
2022/04/01 10:57:32;;;;;;;5.40;2.67;;;;;;;;;;5036076;28;20071;-80
2022/04/01 10:59:59;;;;;;;7.88;2.30;;;;;;;;;;5034073;28;20482;-80
2022/04/01 11:02:24;;;;;;;8.48;2.97;;;;;;;;;;5033732;28;20034;-78
2022/04/01 11:04:53;;;;;;;5.43;2.45;;;;;;;;;;5033637;28;20025;-80
2022/04/01 11:07:21;;;;;;;5.68;2.97;;;;;;;;;;5034089;28;20048;-79
2022/04/01 11:09:50;;;;;;;7.55;2.70;;;;;;;;;;5036228;28;20462;-80
2022/04/01 11:12:15;;;;;;;6.60;2.72;;;;;;;;;;5035120;28;20025;-79
2022/04/01 11:15:15;;;;;;;5.57;2.60;;;;;;;;;;5035837;28;20021;-80
2022/04/01 11:17:40;;;;;;;5.90;2.63;;;;;;;;;;4978580;28;20046;-80
2022/04/01 11:20:08;;;;;;;7.07;2.97;;;;;;;;;;4979026;28;20046;-80
2022/04/01 11:22:34;;;;;;;9.60;3.03;;;;;;;;;;4978844;28;20074;-80
2022/04/01 11:24:59;;;;;;;7.30;2.35;;;;;;;;;;4977714;28;20026;-79
2022/04/01 11:27:26;;;;;;;6.85;2.28;;;;;;;;;;4961946;28;20121;-80
2022/04/01 11:30:04;;;;;;;6.70;2.95;;;;;;;;;;4960922;28;20022;-79
2022/04/01 11:32:30;;;;;;;6.15;2.97;;;;;;;;;;4976438;28;20033;-79
2022/04/01 11:34:56;;;;;;;5.88;2.45;;;;;;;;;;4959800;28;20395;-78
2022/04/01 11:37:23;;;;;;;6.47;2.70;;;;;;;;;;4978265;28;20023;-79
2022/04/01 11:39:52;;;;;;;7.20;2.50;;;;;;;;;;4960272;28;20037;-80
2022/04/01 11:42:18;;;;;;;8.48;2.95;;;;;;;;;;4961147;28;20115;-80
2022/04/01 11:44:54;;;;;;;7.82;2.97;;;;;;;;;;4960302;28;20062;-79
2022/04/01 11:47:37;;;;;;;4.35;2.22;;;;;;;;;;4960087;28;20041;-79
2022/04/01 11:50:09;;;;;;;7.43;2.72;;;;;;;;;;4976676;28;20035;-80
2022/04/01 11:52:39;;;;;;;6.25;2.40;;;;;;;;;;4974870;28;20033;-80
2022/04/01 11:55:20;;;;;;;6.82;2.83;;;;;;;;;;5037070;28;20057;-82
2022/04/01 11:57:45;;;;;;;6.22;2.75;;;;;;;;;;5034948;28;20017;-80
2022/04/01 12:00:15;;;;;;;5.60;2.83;;;;;;;;;;5034750;28;20024;-79
2022/04/01 12:02:42;;;;;;;7.20;2.95;;;;;;;;;;5035654;28;20017;-79
2022/04/01 12:05:08;;;;;;;8.30;2.78;;;;;;;;;;5037454;28;20077;-81
2022/04/01 12:10:27;;;;;;;9.68;3.67;;;;;;;;;;5039974;28;20150;-80
2022/04/01 12:12:53;;;;;;;7.43;2.70;;;;;;;;;;5037860;28;20028;-81
2022/04/01 12:15:28;;;;;;;4.88;2.05;;;;;;;;;;5037043;28;20025;-81
2022/04/01 12:17:54;;;;;;;9.93;2.90;;;;;;;;;;5036338;28;20013;-81
2022/04/01 12:20:20;;;;;;;8.70;2.97;;;;;;;;;;5035895;28;20013;-79
2022/04/01 12:22:46;;;;;;;6.85;2.83;;;;;;;;;;5034469;28;20021;-82
2022/04/01 12:25:11;;;;;;;9.25;2.97;;;;;;;;;;5036687;28;20053;-81
2022/04/01 12:27:55;;;;;;;5.82;2.25;;;;;;;;;;5039112;28;20029;-80
2022/04/01 12:30:31;;;;;;;5.70;2.50;;;;;;;;;;5039049;28;20017;-80
2022/04/01 12:33:00;;;;;;;7.50;3.10;;;;;;;;;;5036638;28;20108;-80
2022/04/01 12:35:26;;;;;;;10.10;2.53;;;;;;;;;;5039066;28;20139;-80
2022/04/01 12:38:05;;;;;;;6.53;2.65;;;;;;;;;;5039470;28;20064;-80
2022/04/01 12:40:34;;;;;;;7.53;2.63;;;;;;;;;;5040341;28;20014;-79
2022/04/01 12:43:02;;;;;;;8.57;2.78;;;;;;;;;;5038436;28;20018;-79
2022/04/01 12:45:28;;;;;;;6.45;2.75;;;;;;;;;;5037556;28;20448;-79
2022/04/01 12:47:56;;;;;;;5.68;2.45;;;;;;;;;;5037334;28;20076;-80
2022/04/01 12:50:32;;;;;;;10.05;2.63;;;;;;;;;;5037987;28;20044;-81
2022/04/01 12:53:07;;;;;;;6.22;2.42;;;;;;;;;;5038931;28;20025;-80
2022/04/01 12:55:32;;;;;;;7.05;2.60;;;;;;;;;;5041771;28;20017;-79
2022/04/01 12:57:58;;;;;;;6.90;2.67;;;;;;;;;;5041938;28;20041;-79
2022/04/01 13:00:25;;;;;;;6.63;2.63;;;;;;;;;;5042140;28;20027;-79
2022/04/01 13:02:51;;;;;;;5.05;1.98;;;;;;;;;;5041114;28;20022;-80
2022/04/01 13:05:18;;;;;;;7.82;2.88;;;;;;;;;;5041072;28;20056;-79
2022/04/01 13:07:43;;;;;;;6.75;2.60;;;;;;;;;;5043301;28;20076;-79
2022/04/01 13:10:11;;;;;;;6.35;2.58;;;;;;;;;;5039694;28;20025;-79
2022/04/01 13:12:41;;;;;;;5.03;2.40;;;;;;;;;;5039437;28;20044;-80
2022/04/01 13:15:10;;;;;;;8.85;2.55;;;;;;;;;;5037277;28;20025;-80
2022/04/01 13:17:55;;;;;;;8.80;3.47;;;;;;;;;;5042143;28;20013;-79
2022/04/01 13:20:28;;;;;;;6.57;2.90;;;;;;;;;;5039025;28;20026;-79
2022/04/01 13:22:54;;;;;;;17.50;6.57;;;;;;;;;;5038956;28;20057;-79
2022/04/01 13:25:22;;;;;;;22.58;8.68;;;;;;;;;;5039830;28;20484;-79
2022/04/01 13:28:01;;;;;;;12.65;4.78;;;;;;;;;;5038370;28;20103;-80
2022/04/01 13:30:29;;;;;;;10.93;4.25;;;;;;;;;;5036478;28;20029;-80
2022/04/01 13:32:56;;;;;;;13.18;5.57;;;;;;;;;;5035972;28;20126;-79
2022/04/01 13:35:22;;;;;;;7.82;3.05;;;;;;;;;;5038402;28;20071;-80
2022/04/01 13:37:49;;;;;;;9.38;4.10;;;;;;;;;;5038447;28;20018;-79
2022/04/01 13:40:15;;;;;;;8.95;3.63;;;;;;;;;;5036204;28;20021;-81
2022/04/01 13:42:42;;;;;;;6.60;2.38;;;;;;;;;;5036809;28;20025;-79
2022/04/01 13:45:13;;;;;;;13.07;3.72;;;;;;;;;;5036122;28;20498;-80
2022/04/01 13:47:39;;;;;;;10.30;4.55;;;;;;;;;;5037035;28;20022;-79
2022/04/01 13:50:05;;;;;;;12.38;3.65;;;;;;;;;;5038065;28;20035;-80
2022/04/01 13:52:30;;;;;;;7.72;2.80;;;;;;;;;;5037822;28;20024;-77
2022/04/01 13:54:55;;;;;;;7.28;3.38;;;;;;;;;;5038452;28;20021;-78
2022/04/01 13:57:22;;;;;;;7.40;2.72;;;;;;;;;;5037953;28;20108;-79
2022/04/01 13:59:47;;;;;;;6.65;2.55;;;;;;;;;;5037269;28;20044;-78
2022/04/01 14:02:13;;;;;;;5.55;2.97;;;;;;;;;;5039900;28;20037;-80
2022/04/01 14:04:39;;;;;;;8.13;2.70;;;;;;;;;;5039118;28;20021;-78
2022/04/01 14:07:08;;;;;;;6.97;3.92;;;;;;;;;;5040025;28;20017;-78
2022/04/01 14:09:36;;;;;;;12.68;2.75;;;;;;;;;;5044067;28;20017;-80
2022/04/01 14:12:03;;;;;;;7.32;2.28;;;;;;;;;;5041167;28;20112;-80
2022/04/01 14:14:28;;;;;;;6.65;2.53;;;;;;;;;;5040139;28;20026;-80
2022/04/01 14:16:53;;;;;;;7.28;2.40;;;;;;;;;;5042213;28;20096;-79
2022/04/01 14:19:19;;;;;;;7.18;2.25;;;;;;;;;;5041820;28;20024;-80
2022/04/01 14:21:44;;;;;;;7.68;2.63;;;;;;;;;;5041298;28;20108;-79
2022/04/01 14:24:10;;;;;;;5.57;2.63;;;;;;;;;;5041459;28;20024;-80
2022/04/01 14:26:35;;;;;;;6.55;2.50;;;;;;;;;;5042258;28;20048;-81
2022/04/01 14:31:57;;;;;;;8.15;2.33;;;;;;;;;;5039947;28;20048;-79
2022/04/01 14:34:26;;;;;;;5.05;2.08;;;;;;;;;;5042040;28;20017;-80
2022/04/01 14:36:55;;;;;;;6.35;2.53;;;;;;;;;;5036094;28;20024;-79
2022/04/01 14:39:21;;;;;;;6.78;2.25;;;;;;;;;;5036708;28;20022;-80
2022/04/01 14:41:47;;;;;;;4.43;2.30;;;;;;;;;;5039238;28;20084;-80
2022/04/01 14:44:12;;;;;;;6.82;2.83;;;;;;;;;;5037485;28;20076;-80
2022/04/01 14:46:38;;;;;;;4.93;2.22;;;;;;;;;;5037164;28;20028;-80
2022/04/01 14:49:04;;;;;;;5.43;2.15;;;;;;;;;;5040834;28;20049;-80
2022/04/01 14:51:29;;;;;;;5.60;2.20;;;;;;;;;;5037557;28;20472;-80
2022/04/01 14:53:55;;;;;;;5.45;2.03;;;;;;;;;;5039481;28;20448;-81
2022/04/01 14:56:20;;;;;;;7.80;3.97;;;;;;;;;;5038661;28;20014;-81